TimeEST,TemperatureF,Dew PointF,Humidity,Sea Level PressureIn,VisibilityMPH,Wind Direction,Wind SpeedMPH,Gust SpeedMPH,PrecipitationIn,Events,Conditions,WindDirDegrees,DateUTC
12:15 AM,55.4,55.4,100,30.08,7.0,North,-9999.0,-,N/A,,Clear,0,2012-12-16 05:15:00
12:35 AM,53.6,53.6,100,30.08,4.0,North,-9999.0,-,N/A,,Clear,0,2012-12-16 05:35:00
12:55 AM,55.4,55.4,100,30.09,10.0,North,-9999.0,-,N/A,,Clear,0,2012-12-16 05:55:00
1:15 AM,53.6,53.6,100,30.08,2.0,North,-9999.0,-,N/A,,Clear,0,2012-12-16 06:15:00
1:55 AM,53.6,53.6,100,30.07,5.0,North,-9999.0,-,N/A,,Clear,0,2012-12-16 06:55:00
2:15 AM,53.6,53.6,100,30.07,0.8,North,-9999.0,-,N/A,,Mist,0,2012-12-16 07:15:00
2:35 AM,53.6,53.6,100,30.07,0.8,North,-9999.0,-,N/A,,Mist,0,2012-12-16 07:35:00
2:55 AM,53.6,53.6,100,30.06,0.5,North,-9999.0,-,N/A,Fog,Fog,0,2012-12-16 07:55:00
3:15 AM,51.8,51.8,100,30.06,0.8,North,-9999.0,-,N/A,,Mist,0,2012-12-16 08:15:00
3:55 AM,51.8,51.8,100,30.07,4.0,North,-9999.0,-,N/A,,Clear,0,2012-12-16 08:55:00
4:15 AM,51.8,51.8,100,30.07,1.0,North,-9999.0,-,N/A,,Mist,0,2012-12-16 09:15:00
4:35 AM,51.8,51.8,100,30.06,5.0,North,-9999.0,-,N/A,,Clear,0,2012-12-16 09:35:00
4:55 AM,51.8,51.8,100,30.05,7.0,North,-9999.0,-,N/A,,Clear,0,2012-12-16 09:55:00
5:15 AM,51.8,51.8,100,30.05,1.2,North,-9999.0,-,N/A,,Mist,0,2012-12-16 10:15:00
5:35 AM,51.8,51.8,100,30.05,5.0,North,-9999.0,-,N/A,,Clear,0,2012-12-16 10:35:00
5:55 AM,51.8,51.8,100,30.06,5.0,North,-9999.0,-,N/A,,Clear,0,2012-12-16 10:55:00
6:15 AM,51.8,51.8,100,30.06,10.0,North,-9999.0,-,N/A,,Clear,0,2012-12-16 11:15:00
6:35 AM,51.8,50.0,94,30.06,0.8,North,-9999.0,-,N/A,,Mist,0,2012-12-16 11:35:00
6:55 AM,50.0,50.0,100,30.07,3.0,North,-9999.0,-,N/A,,Clear,0,2012-12-16 11:55:00
7:15 AM,50.0,50.0,100,30.08,4.0,North,-9999.0,-,N/A,,Clear,0,2012-12-16 12:15:00
7:35 AM,51.8,51.8,100,30.08,2.5,North,-9999.0,-,N/A,,Clear,0,2012-12-16 12:35:00
8:15 AM,53.6,53.6,100,30.09,2.0,North,-9999.0,-,N/A,,Overcast,0,2012-12-16 13:15:00
8:35 AM,55.4,55.4,100,30.08,0.8,North,-9999.0,-,N/A,,Overcast,0,2012-12-16 13:35:00
8:55 AM,59.0,59.0,100,30.08,10.0,North,-9999.0,-,N/A,,Scattered Clouds,0,2012-12-16 13:55:00
9:15 AM,60.8,60.8,100,30.08,10.0,North,-9999.0,-,N/A,,Clear,0,2012-12-16 14:15:00
9:35 AM,62.6,62.6,100,30.08,10.0,North,-9999.0,-,N/A,,Clear,0,2012-12-16 14:35:00
9:55 AM,68.0,64.4,88,30.09,10.0,North,-9999.0,-,N/A,,Clear,0,2012-12-16 14:55:00
10:15 AM,71.6,66.2,83,30.08,10.0,North,-9999.0,-,N/A,,Clear,0,2012-12-16 15:15:00
10:35 AM,73.4,66.2,78,30.08,10.0,North,-9999.0,-,N/A,,Clear,0,2012-12-16 15:35:00
10:55 AM,75.2,66.2,73,30.07,10.0,North,-9999.0,-,N/A,,Clear,0,2012-12-16 15:55:00
11:15 AM,77.0,62.6,61,30.07,10.0,North,-9999.0,-,N/A,,Scattered Clouds,0,2012-12-16 16:15:00
11:35 AM,77.0,60.8,57,30.06,10.0,North,-9999.0,-,N/A,,Scattered Clouds,0,2012-12-16 16:35:00
11:55 AM,77.0,59.0,54,30.05,10.0,North,-9999.0,-,N/A,,Scattered Clouds,0,2012-12-16 16:55:00
12:15 PM,75.2,57.2,53,30.04,10.0,North,-9999.0,-,N/A,,Clear,0,2012-12-16 17:15:00
12:35 PM,78.8,57.2,47,30.03,10.0,North,-9999.0,-,N/A,,Clear,0,2012-12-16 17:35:00
12:55 PM,77.0,57.2,50,30.02,10.0,North,-9999.0,-,N/A,,Clear,0,2012-12-16 17:55:00
1:15 PM,77.0,55.4,47,30.00,10.0,North,-9999.0,-,N/A,,Clear,0,2012-12-16 18:15:00
1:35 PM,78.8,55.4,44,29.99,10.0,North,-9999.0,-,N/A,,Clear,0,2012-12-16 18:35:00
1:55 PM,78.8,55.4,44,30.00,10.0,North,-9999.0,-,N/A,,Clear,0,2012-12-16 18:55:00
2:15 PM,78.8,55.4,44,30.00,10.0,North,-9999.0,-,N/A,,Clear,0,2012-12-16 19:15:00
2:35 PM,78.8,55.4,44,29.99,10.0,North,-9999.0,-,N/A,,Clear,0,2012-12-16 19:35:00
2:55 PM,80.6,53.6,39,29.99,10.0,North,-9999.0,-,N/A,,Clear,0,2012-12-16 19:55:00
3:15 PM,78.8,53.6,42,29.98,10.0,North,-9999.0,-,N/A,,Clear,0,2012-12-16 20:15:00
3:35 PM,78.8,53.6,42,29.98,10.0,North,-9999.0,-,N/A,,Clear,0,2012-12-16 20:35:00
3:55 PM,78.8,53.6,42,29.98,10.0,North,-9999.0,-,N/A,,Clear,0,2012-12-16 20:55:00
4:15 PM,77.0,53.6,44,29.97,10.0,North,-9999.0,-,N/A,,Clear,0,2012-12-16 21:15:00
4:35 PM,78.8,53.6,42,29.98,10.0,North,-9999.0,-,N/A,,Clear,0,2012-12-16 21:35:00
4:55 PM,75.2,55.4,50,29.98,10.0,North,-9999.0,-,N/A,,Clear,0,2012-12-16 21:55:00
5:15 PM,73.4,55.4,53,29.98,10.0,North,-9999.0,-,N/A,,Clear,0,2012-12-16 22:15:00
5:35 PM,69.8,59.0,68,29.99,10.0,North,-9999.0,-,N/A,,Scattered Clouds,0,2012-12-16 22:35:00
5:55 PM,68.0,59.0,73,29.98,10.0,North,-9999.0,-,N/A,,Clear,0,2012-12-16 22:55:00
6:15 PM,66.2,60.8,83,29.98,10.0,North,-9999.0,-,N/A,,Clear,0,2012-12-16 23:15:00
6:35 PM,66.2,59.0,78,29.98,10.0,North,-9999.0,-,N/A,,Clear,0,2012-12-16 23:35:00
6:55 PM,64.4,60.8,88,29.98,10.0,North,-9999.0,-,N/A,,Clear,0,2012-12-16 23:55:00
7:15 PM,64.4,60.8,88,29.98,10.0,North,-9999.0,-,N/A,,Clear,0,2012-12-17 00:15:00
7:35 PM,64.4,60.8,88,29.98,10.0,North,-9999.0,-,N/A,,Clear,0,2012-12-17 00:35:00
7:55 PM,62.6,60.8,94,29.99,10.0,North,-9999.0,-,N/A,,Clear,0,2012-12-17 00:55:00
8:15 PM,60.8,60.8,100,29.99,10.0,North,-9999.0,-,N/A,,Clear,0,2012-12-17 01:15:00
8:35 PM,60.8,60.8,100,30.00,10.0,North,-9999.0,-,N/A,,Clear,0,2012-12-17 01:35:00
8:55 PM,60.8,60.8,100,30.00,10.0,North,-9999.0,-,N/A,,Clear,0,2012-12-17 01:55:00
9:15 PM,60.8,60.8,100,30.01,10.0,North,-9999.0,-,N/A,,Clear,0,2012-12-17 02:15:00
9:35 PM,60.8,59.0,94,30.01,10.0,North,-9999.0,-,N/A,,Clear,0,2012-12-17 02:35:00
9:55 PM,59.0,59.0,100,30.01,10.0,North,-9999.0,-,N/A,,Clear,0,2012-12-17 02:55:00
10:15 PM,59.0,59.0,100,30.01,10.0,North,-9999.0,-,N/A,,Mostly Cloudy,0,2012-12-17 03:15:00
10:35 PM,60.8,60.8,100,30.02,10.0,North,-9999.0,-,N/A,,Overcast,0,2012-12-17 03:35:00
10:55 PM,60.8,60.8,100,30.02,10.0,North,-9999.0,-,N/A,,Overcast,0,2012-12-17 03:55:00
11:15 PM,60.8,60.8,100,30.02,10.0,North,-9999.0,-,N/A,,Mostly Cloudy,0,2012-12-17 04:15:00
11:35 PM,60.8,60.8,100,30.01,10.0,North,-9999.0,-,N/A,,Scattered Clouds,0,2012-12-17 04:35:00
11:55 PM,60.8,60.8,100,30.02,10.0,North,-9999.0,-,N/A,,Clear,0,2012-12-17 04:55:00